Amelia, Ohio
Current Conditions -  °F | °C
As of 2:53 AM on Wednesday 26 Nov 2014 (Local Time) from KLUK Reporting Station
Clear Clear  
Wind Chill: -3°   Ceiling: Unl
Heat Index: -3°   Visibility: 7mi
Dew Point: -4°   Wind: 3mph
Humidity: 92%   Direction: 30°NNE
Pressure: 30.17"   Gusts: NA
Location:  39.03°N, 84.22°W
Report Text: KLUK 260753Z AUTO 03003KT 7SM CLR M03/M04 A3017 RMK AO2 SLP218 T10281039
Loading
Personal Weather Stations






























Interactive Weather Map New forecast layout! Learn more

10-Day Weather Forecast

Advertisements
Track Severe Weather on mobile